createdAt,value
2019-05-15T00:00:23.187Z,0
2019-05-15T00:01:35.400Z,0
2019-05-15T00:02:48.056Z,0
2019-05-15T00:04:00.929Z,0
2019-05-15T00:05:11.485Z,0
2019-05-15T00:06:23.778Z,0
2019-05-15T00:07:38.783Z,0
2019-05-15T00:08:50.489Z,0
2019-05-15T00:10:01.037Z,0
2019-05-15T00:11:13.006Z,0
2019-05-15T00:12:23.739Z,0
2019-05-15T00:13:35.464Z,0
2019-05-15T00:14:48.296Z,0
2019-05-15T00:15:58.978Z,0
2019-05-15T00:17:10.688Z,0
2019-05-15T00:18:22.948Z,0
2019-05-15T00:19:33.288Z,0
2019-05-15T00:20:44.400Z,0
2019-05-15T00:21:58.382Z,0
2019-05-15T00:23:10.908Z,0
2019-05-15T00:24:25.004Z,0
2019-05-15T00:25:35.512Z,0
2019-05-15T00:26:50.410Z,0
2019-05-15T00:28:00.707Z,0
2019-05-15T00:29:28.872Z,0
2019-05-15T00:30:41.238Z,0
2019-05-15T00:31:53.410Z,0
2019-05-15T00:33:03.675Z,0
2019-05-15T00:34:20.753Z,0
2019-05-15T00:35:34.994Z,0
2019-05-15T00:36:45.480Z,0
2019-05-15T00:37:58.410Z,0
2019-05-15T00:39:10.982Z,0
2019-05-15T00:40:22.975Z,0
2019-05-15T00:41:48.102Z,0
2019-05-15T00:43:02.694Z,0
2019-05-15T00:44:13.776Z,0
2019-05-15T00:45:27.755Z,0
2019-05-15T00:46:40.568Z,0
2019-05-15T00:47:51.249Z,0
2019-05-15T00:49:03.894Z,0
2019-05-15T00:50:17.879Z,0
2019-05-15T00:51:30.976Z,0
2019-05-15T00:52:41.438Z,0
2019-05-15T00:53:52.773Z,0
2019-05-15T00:55:03.546Z,0
2019-05-15T00:56:15.907Z,0
2019-05-15T00:57:28.318Z,0
2019-05-15T00:58:40.143Z,0
2019-05-15T00:59:50.818Z,0
2019-05-15T01:01:01.618Z,0
2019-05-15T01:02:13.319Z,0
2019-05-15T01:03:25.342Z,0
2019-05-15T01:04:38.857Z,0
2019-05-15T01:05:50.534Z,0
2019-05-15T01:07:03.732Z,0
2019-05-15T01:08:15.413Z,0
2019-05-15T01:09:25.924Z,0
2019-05-15T01:10:40.914Z,0
2019-05-15T01:11:51.310Z,0
2019-05-15T01:13:03.187Z,0
2019-05-15T01:14:18.565Z,0
2019-05-15T01:15:28.984Z,0
2019-05-15T01:16:40.773Z,0
2019-05-15T01:17:51.663Z,0
2019-05-15T01:19:03.461Z,0
2019-05-15T01:20:15.720Z,0
2019-05-15T01:21:30.237Z,0
2019-05-15T01:22:41.822Z,0
2019-05-15T01:23:53.012Z,0
2019-05-15T01:25:03.825Z,0
2019-05-15T01:26:15.522Z,0
2019-05-15T01:27:29.121Z,0
2019-05-15T01:28:40.683Z,0
2019-05-15T01:29:58.143Z,0
2019-05-15T01:31:11.081Z,0
2019-05-15T01:32:21.606Z,0
2019-05-15T01:33:33.147Z,0
2019-05-15T01:34:45.569Z,0
2019-05-15T01:35:55.806Z,0
2019-05-15T01:37:08.375Z,0
2019-05-15T01:38:18.669Z,0
2019-05-15T01:39:29.115Z,0
2019-05-15T01:40:41.099Z,0
2019-05-15T01:41:54.301Z,0
2019-05-15T01:43:05.257Z,0
2019-05-15T01:44:17.844Z,0
2019-05-15T01:45:30.997Z,0
2019-05-15T01:46:44.007Z,0
2019-05-15T01:47:55.209Z,0
2019-05-15T01:49:07.924Z,0
2019-05-15T01:50:20.879Z,0
2019-05-15T01:51:33.219Z,0
2019-05-15T01:52:44.029Z,0
2019-05-15T01:53:55.280Z,0
2019-05-15T01:55:09.042Z,0
2019-05-15T01:56:21.041Z,0
2019-05-15T01:57:33.432Z,0
2019-05-15T01:58:45.175Z,0
2019-05-15T02:00:08.667Z,0
2019-05-15T02:01:21.435Z,0
2019-05-15T02:02:32.834Z,0
2019-05-15T02:03:43.335Z,0
2019-05-15T02:04:55.825Z,0
2019-05-15T02:06:10.560Z,0
2019-05-15T02:07:21.174Z,0
2019-05-15T02:08:33.382Z,0
2019-05-15T02:09:45.653Z,0
2019-05-15T02:10:58.767Z,0
2019-05-15T02:12:11.002Z,0
2019-05-15T02:13:21.132Z,0
2019-05-15T02:14:33.343Z,0
2019-05-15T02:15:44.355Z,0
2019-05-15T02:16:55.348Z,0
2019-05-15T02:18:08.147Z,0
2019-05-15T02:19:19.345Z,0
2019-05-15T02:20:31.467Z,0
2019-05-15T02:21:42.833Z,0
2019-05-15T02:22:53.341Z,0
2019-05-15T02:24:03.581Z,0
2019-05-15T02:25:15.793Z,0
2019-05-15T02:26:28.126Z,0
2019-05-15T02:27:41.322Z,0
2019-05-15T02:28:53.541Z,0
2019-05-15T02:30:43.162Z,0
2019-05-15T02:31:55.179Z,0
2019-05-15T02:33:12.910Z,0
2019-05-15T02:34:29.633Z,0
2019-05-15T02:35:41.828Z,0
2019-05-15T02:36:54.245Z,0
2019-05-15T02:38:09.716Z,0
2019-05-15T02:39:23.836Z,0
2019-05-15T02:40:40.063Z,0
2019-05-15T02:41:53.771Z,0
2019-05-15T02:43:09.591Z,0
2019-05-15T02:44:22.514Z,0
2019-05-15T02:45:41.804Z,0
2019-05-15T02:46:54.595Z,0
2019-05-15T02:48:08.839Z,0
2019-05-15T02:49:21.685Z,0
2019-05-15T02:50:33.994Z,0
2019-05-15T02:51:49.235Z,0
2019-05-15T02:53:02.818Z,0
2019-05-15T02:54:15.183Z,0
2019-05-15T02:55:29.594Z,0
2019-05-15T02:56:41.542Z,0
2019-05-15T02:57:54.182Z,0
2019-05-15T02:59:09.179Z,0
2019-05-15T03:00:58.887Z,0
2019-05-15T03:02:12.509Z,0
2019-05-15T03:03:25.266Z,0
2019-05-15T03:04:42.058Z,5
2019-05-15T03:05:54.696Z,5
2019-05-15T03:07:09.570Z,5
2019-05-15T03:08:22.118Z,5
2019-05-15T03:09:34.648Z,5
2019-05-15T03:10:49.580Z,5
2019-05-15T03:12:01.126Z,10
2019-05-15T03:13:14.188Z,10
2019-05-15T03:14:29.062Z,10
2019-05-15T03:15:42.550Z,10
2019-05-15T03:16:54.613Z,10
2019-05-15T03:18:09.500Z,15
2019-05-15T03:19:21.879Z,15
2019-05-15T03:20:34.692Z,15
2019-05-15T03:21:49.364Z,15
2019-05-15T03:23:02.234Z,20
2019-05-15T03:24:14.867Z,20
2019-05-15T03:25:29.493Z,20
2019-05-15T03:26:41.928Z,25
2019-05-15T03:27:54.791Z,25
2019-05-15T03:29:09.475Z,25
2019-05-15T03:31:02.451Z,25
2019-05-15T03:33:18.249Z,30
2019-05-15T03:35:13.087Z,30
2019-05-15T03:36:36.182Z,35
2019-05-15T03:37:51.764Z,35
2019-05-15T03:39:03.296Z,35
2019-05-15T03:40:15.310Z,40
2019-05-15T03:41:29.605Z,40
2019-05-15T03:42:41.934Z,40
2019-05-15T03:43:54.485Z,45
2019-05-15T03:45:09.609Z,45
2019-05-15T03:46:22.507Z,45
2019-05-15T03:47:35.047Z,45
2019-05-15T03:48:48.690Z,50
2019-05-15T03:50:02.440Z,50
2019-05-15T03:51:13.844Z,50
2019-05-15T03:52:29.284Z,50
2019-05-15T03:53:42.605Z,55
2019-05-15T03:54:54.383Z,55
2019-05-15T03:56:09.374Z,55
2019-05-15T03:57:24.953Z,55
2019-05-15T03:58:39.991Z,60
2019-05-15T03:59:51.455Z,60
2019-05-15T04:01:23.544Z,60
2019-05-15T04:02:41.624Z,65
2019-05-15T04:03:54.497Z,65
2019-05-15T04:05:14.614Z,65
2019-05-15T04:06:29.601Z,70
2019-05-15T04:07:42.062Z,70
2019-05-15T04:08:54.591Z,70
2019-05-15T04:10:09.518Z,70
2019-05-15T04:11:22.716Z,75
2019-05-15T04:12:36.123Z,75
2019-05-15T04:13:52.295Z,75
2019-05-15T04:15:04.499Z,75
2019-05-15T04:16:19.037Z,75
2019-05-15T04:17:31.951Z,80
2019-05-15T04:18:44.194Z,80
2019-05-15T04:19:58.868Z,80
2019-05-15T04:21:11.513Z,85
2019-05-15T04:22:24.543Z,85
2019-05-15T04:23:39.060Z,85
2019-05-15T04:24:51.910Z,90
2019-05-15T04:26:03.769Z,90
2019-05-15T04:27:22.174Z,90
2019-05-15T04:28:33.938Z,95
2019-05-15T04:29:49.187Z,95
2019-05-15T04:31:02.107Z,95
2019-05-15T04:32:19.961Z,95
2019-05-15T04:33:31.867Z,95
2019-05-15T04:34:44.496Z,95
2019-05-15T04:35:58.893Z,100
2019-05-15T04:37:11.877Z,100
2019-05-15T04:38:24.262Z,105
2019-05-15T04:39:39.720Z,110
2019-05-15T04:40:52.560Z,110
2019-05-15T04:42:03.878Z,115
2019-05-15T04:43:19.370Z,115
2019-05-15T04:44:31.399Z,120
2019-05-15T04:45:49.589Z,120
2019-05-15T04:47:02.006Z,125
2019-05-15T04:48:15.138Z,125
2019-05-15T04:49:29.031Z,125
2019-05-15T04:50:42.289Z,135
2019-05-15T04:51:58.765Z,130
2019-05-15T04:53:13.234Z,130
2019-05-15T04:54:24.904Z,130
2019-05-15T04:55:39.893Z,130
2019-05-15T04:56:51.450Z,135
2019-05-15T04:58:03.882Z,135
2019-05-15T04:59:19.450Z,135
2019-05-15T05:00:31.465Z,130
2019-05-15T05:01:44.998Z,130
2019-05-15T05:02:58.830Z,135
2019-05-15T05:04:11.797Z,135
2019-05-15T05:05:23.699Z,135
2019-05-15T05:06:38.661Z,135
2019-05-15T05:07:51.560Z,135
2019-05-15T05:09:04.122Z,140
2019-05-15T05:10:19.535Z,140
2019-05-15T05:11:38.129Z,145
2019-05-15T05:12:55.777Z,145
2019-05-15T05:14:11.012Z,145
2019-05-15T05:15:23.789Z,150
2019-05-15T05:16:39.196Z,150
2019-05-15T05:17:51.417Z,150
2019-05-15T05:19:04.171Z,150
2019-05-15T05:20:15.276Z,150
2019-05-15T05:21:27.694Z,150
2019-05-15T05:22:39.179Z,155
2019-05-15T05:23:50.837Z,155
2019-05-15T05:25:02.975Z,155
2019-05-15T05:26:20.856Z,155
2019-05-15T05:27:31.312Z,160
2019-05-15T05:28:42.810Z,160
2019-05-15T05:29:54.946Z,165
2019-05-15T05:31:08.148Z,165
2019-05-15T05:32:38.826Z,165
2019-05-15T05:33:51.056Z,170
2019-05-15T05:35:01.116Z,175
2019-05-15T05:36:12.904Z,180
2019-05-15T05:37:23.110Z,185
2019-05-15T05:38:35.195Z,185
2019-05-15T05:39:48.315Z,190
2019-05-15T05:41:01.168Z,195
2019-05-15T05:42:12.714Z,195
2019-05-15T05:43:23.242Z,200
2019-05-15T05:44:33.990Z,200
2019-05-15T05:45:45.274Z,200
2019-05-15T05:46:58.095Z,200
2019-05-15T05:48:08.799Z,205
2019-05-15T05:49:20.912Z,210
2019-05-15T05:50:33.563Z,210
2019-05-15T05:51:48.019Z,210
2019-05-15T05:53:00.359Z,215
2019-05-15T05:54:10.879Z,220
2019-05-15T05:55:22.452Z,225
2019-05-15T05:56:33.658Z,230
2019-05-15T05:57:45.322Z,235
2019-05-15T05:58:58.571Z,240
2019-05-15T06:00:11.624Z,245
2019-05-15T06:01:23.611Z,250
2019-05-15T06:02:54.386Z,250
2019-05-15T06:04:07.740Z,255
2019-05-15T06:05:18.975Z,255
2019-05-15T06:06:31.555Z,260
2019-05-15T06:07:43.602Z,260
2019-05-15T06:08:55.021Z,260
2019-05-15T06:10:05.091Z,265
2019-05-15T06:11:18.318Z,270
2019-05-15T06:12:30.651Z,275
2019-05-15T06:13:43.036Z,280
2019-05-15T06:14:57.931Z,285
2019-05-15T06:16:10.786Z,290
2019-05-15T06:17:21.586Z,290
2019-05-15T06:18:32.810Z,295
2019-05-15T06:19:43.214Z,300
2019-05-15T06:20:54.396Z,305
2019-05-15T06:22:11.250Z,305
2019-05-15T06:23:34.534Z,310
2019-05-15T06:24:48.486Z,310
2019-05-15T06:25:59.187Z,315
2019-05-15T06:27:10.651Z,315
2019-05-15T06:28:24.008Z,315
2019-05-15T06:29:35.252Z,320
2019-05-15T06:30:48.572Z,315
2019-05-15T06:32:01.152Z,320
2019-05-15T06:33:21.425Z,325
2019-05-15T06:34:33.387Z,325
2019-05-15T06:35:44.338Z,315
2019-05-15T06:36:55.860Z,310
2019-05-15T06:38:11.017Z,310
2019-05-15T06:39:22.712Z,295
2019-05-15T06:40:33.770Z,280
2019-05-15T06:41:48.235Z,280
2019-05-15T06:42:59.303Z,275
2019-05-15T06:44:10.395Z,265
2019-05-15T06:45:21.343Z,255
2019-05-15T06:46:33.982Z,250
2019-05-15T06:47:48.223Z,245
2019-05-15T06:49:00.186Z,245
2019-05-15T06:50:11.089Z,245
2019-05-15T06:51:22.982Z,245
2019-05-15T06:52:37.810Z,250
2019-05-15T06:53:49.100Z,260
2019-05-15T06:54:59.333Z,260
2019-05-15T06:56:10.430Z,270
2019-05-15T06:57:23.164Z,280
2019-05-15T06:58:38.398Z,295
2019-05-15T06:59:50.766Z,310
2019-05-15T07:01:01.458Z,315
2019-05-15T07:02:12.901Z,330
2019-05-15T07:03:38.883Z,340
2019-05-15T07:04:51.190Z,345
2019-05-15T07:06:04.722Z,345
2019-05-15T07:07:20.698Z,350
2019-05-15T07:08:33.610Z,360
2019-05-15T07:09:45.022Z,355
2019-05-15T07:10:57.838Z,355
2019-05-15T07:12:10.483Z,355
2019-05-15T07:13:22.660Z,355
2019-05-15T07:14:33.622Z,350
2019-05-15T07:15:45.380Z,340
2019-05-15T07:16:59.164Z,330
2019-05-15T07:18:11.208Z,330
2019-05-15T07:19:23.875Z,325
2019-05-15T07:20:35.761Z,315
2019-05-15T07:21:51.038Z,305
2019-05-15T07:23:03.430Z,290
2019-05-15T07:24:18.192Z,290
2019-05-15T07:25:29.303Z,280
2019-05-15T07:26:41.560Z,270
2019-05-15T07:27:52.678Z,270
2019-05-15T07:29:04.944Z,275
2019-05-15T07:30:21.206Z,280
2019-05-15T07:31:31.346Z,280
2019-05-15T07:32:44.240Z,280
2019-05-15T07:33:56.138Z,275
2019-05-15T07:35:08.399Z,275
2019-05-15T07:36:21.572Z,280
2019-05-15T07:37:33.709Z,280
2019-05-15T07:38:48.347Z,280
2019-05-15T07:39:59.027Z,285
2019-05-15T07:41:18.427Z,295
2019-05-15T07:42:29.051Z,300
2019-05-15T07:43:40.916Z,310
2019-05-15T07:44:53.068Z,320
2019-05-15T07:46:08.320Z,325
2019-05-15T07:47:21.434Z,330
2019-05-15T07:48:33.827Z,330
2019-05-15T07:49:49.006Z,335
2019-05-15T07:51:01.722Z,350
2019-05-15T07:52:13.449Z,365
2019-05-15T07:53:24.741Z,390
2019-05-15T07:54:38.139Z,400
2019-05-15T07:55:52.382Z,410
2019-05-15T07:57:03.057Z,425
2019-05-15T07:58:15.684Z,440
2019-05-15T07:59:30.373Z,455
2019-05-15T08:00:41.946Z,460
2019-05-15T08:01:53.780Z,475
2019-05-15T08:03:05.622Z,485
2019-05-15T08:04:40.555Z,500
2019-05-15T08:06:11.291Z,515
2019-05-15T08:07:23.268Z,520
2019-05-15T08:08:36.123Z,530
2019-05-15T08:09:50.939Z,530
2019-05-15T08:11:23.647Z,520
2019-05-15T08:12:35.286Z,505
2019-05-15T08:13:48.641Z,495
2019-05-15T08:15:02.702Z,485
2019-05-15T08:16:13.447Z,485
2019-05-15T08:17:31.359Z,480
2019-05-15T08:18:41.944Z,470
2019-05-15T08:19:53.519Z,460
2019-05-15T08:21:05.594Z,450
2019-05-15T08:22:18.269Z,450
2019-05-15T08:23:30.922Z,450
2019-05-15T08:24:41.378Z,465
2019-05-15T08:25:53.422Z,480
2019-05-15T08:27:05.332Z,500
2019-05-15T08:28:18.938Z,515
2019-05-15T08:29:33.349Z,530
2019-05-15T08:30:45.800Z,545
2019-05-15T08:31:58.920Z,555
2019-05-15T08:33:10.917Z,555
2019-05-15T08:34:28.212Z,570
2019-05-15T08:35:44.522Z,600
2019-05-15T08:36:58.950Z,615
2019-05-15T08:38:14.196Z,620
2019-05-15T08:39:28.399Z,605
2019-05-15T08:40:43.282Z,595
2019-05-15T08:41:55.603Z,585
2019-05-15T08:43:13.849Z,575
2019-05-15T08:44:25.903Z,570
2019-05-15T08:45:39.090Z,580
2019-05-15T08:46:52.917Z,590
2019-05-15T08:48:03.533Z,600
2019-05-15T08:49:14.039Z,615
2019-05-15T08:50:25.457Z,605
2019-05-15T08:51:40.459Z,605
2019-05-15T08:52:50.957Z,675
2019-05-15T08:54:02.848Z,640
2019-05-15T08:55:15.611Z,690
2019-05-15T08:56:28.840Z,695
2019-05-15T08:57:40.554Z,650
2019-05-15T08:58:51.147Z,650
2019-05-15T09:00:03.155Z,650
2019-05-15T09:01:14.724Z,660
2019-05-15T09:02:25.769Z,630
2019-05-15T09:03:40.409Z,620
2019-05-15T09:04:51.143Z,610
2019-05-15T09:06:03.435Z,620
2019-05-15T09:07:18.046Z,635
2019-05-15T09:08:31.834Z,635
2019-05-15T09:09:43.194Z,710
2019-05-15T09:10:55.006Z,630
2019-05-15T09:12:08.084Z,675
2019-05-15T09:13:21.549Z,650
2019-05-15T09:14:33.431Z,630
2019-05-15T09:15:48.150Z,595
2019-05-15T09:17:00.711Z,605
2019-05-15T09:18:28.325Z,575
2019-05-15T09:19:38.829Z,570
2019-05-15T09:20:51.771Z,585
2019-05-15T09:22:03.391Z,600
2019-05-15T09:23:18.813Z,610
2019-05-15T09:24:30.786Z,615
2019-05-15T09:25:41.459Z,620
2019-05-15T09:26:53.577Z,600
2019-05-15T09:28:05.141Z,580
2019-05-15T09:29:18.231Z,615
2019-05-15T09:30:30.917Z,620
2019-05-15T09:31:41.647Z,605
2019-05-15T09:32:53.304Z,595
2019-05-15T09:34:05.742Z,580
2019-05-15T09:35:18.659Z,575
2019-05-15T09:36:31.371Z,570
2019-05-15T09:37:45.947Z,540
2019-05-15T09:39:00.870Z,530
2019-05-15T09:40:13.286Z,530
2019-05-15T09:41:25.190Z,520
2019-05-15T09:42:38.547Z,545
2019-05-15T09:43:53.383Z,570
2019-05-15T09:45:05.175Z,575
2019-05-15T09:46:20.760Z,585
2019-05-15T09:47:32.160Z,595
2019-05-15T09:48:47.199Z,595
2019-05-15T09:49:58.951Z,595
2019-05-15T09:51:11.325Z,590
2019-05-15T09:52:29.790Z,585
2019-05-15T09:53:42.005Z,590
2019-05-15T09:54:54.120Z,590
2019-05-15T09:56:04.860Z,585
2019-05-15T09:57:18.739Z,580
2019-05-15T09:58:32.344Z,600
2019-05-15T09:59:43.715Z,615
2019-05-15T10:00:58.858Z,635
2019-05-15T10:02:11.519Z,660
2019-05-15T10:03:23.835Z,705
2019-05-15T10:04:35.991Z,715
2019-05-15T10:05:50.618Z,745
2019-05-15T10:07:00.639Z,750
2019-05-15T10:08:11.191Z,710
2019-05-15T10:09:23.536Z,685
2019-05-15T10:10:37.796Z,650
2019-05-15T10:11:49.147Z,650
2019-05-15T10:13:02.140Z,655
2019-05-15T10:14:14.686Z,680
2019-05-15T10:15:25.862Z,660
2019-05-15T10:16:35.852Z,640
2019-05-15T10:17:45.845Z,625
2019-05-15T10:19:02.986Z,620
2019-05-15T10:20:14.019Z,610
2019-05-15T10:21:33.023Z,615
2019-05-15T10:22:43.028Z,620
2019-05-15T10:23:58.967Z,620
2019-05-15T10:25:10.561Z,620
2019-05-15T10:26:28.503Z,615
2019-05-15T10:27:39.744Z,570
2019-05-15T10:28:51.928Z,525
2019-05-15T10:30:03.675Z,500
2019-05-15T10:31:16.261Z,485
2019-05-15T10:32:31.207Z,475
2019-05-15T10:33:44.013Z,465
2019-05-15T10:34:53.965Z,460
2019-05-15T10:36:08.322Z,460
2019-05-15T10:37:20.901Z,460
2019-05-15T10:38:33.441Z,465
2019-05-15T10:39:45.586Z,475
2019-05-15T10:41:23.650Z,495
2019-05-15T10:42:35.994Z,510
2019-05-15T10:44:05.250Z,505
2019-05-15T10:45:15.362Z,500
2019-05-15T10:46:26.265Z,505
2019-05-15T10:47:41.365Z,490
2019-05-15T10:48:54.223Z,475
2019-05-15T10:50:04.959Z,460
2019-05-15T10:51:19.423Z,445
2019-05-15T10:52:31.164Z,440
2019-05-15T10:53:43.663Z,425
2019-05-15T10:54:53.654Z,420
2019-05-15T10:56:05.243Z,415
2019-05-15T10:57:18.832Z,410
2019-05-15T10:58:33.363Z,400
2019-05-15T10:59:43.125Z,395
2019-05-15T11:01:00.912Z,395
2019-05-15T11:02:13.182Z,400
2019-05-15T11:03:24.861Z,410
2019-05-15T11:04:36.028Z,420
2019-05-15T11:05:57.933Z,430
2019-05-15T11:07:09.775Z,415
2019-05-15T11:08:21.402Z,405
2019-05-15T11:09:33.480Z,395
2019-05-15T11:10:51.319Z,390
2019-05-15T11:12:02.951Z,380
2019-05-15T11:13:13.860Z,380
2019-05-15T11:14:25.710Z,385
2019-05-15T11:15:44.288Z,380
2019-05-15T11:16:55.748Z,385
2019-05-15T11:18:09.220Z,395
2019-05-15T11:19:19.114Z,395
2019-05-15T11:20:29.135Z,400
2019-05-15T11:21:39.117Z,400
2019-05-15T11:22:54.623Z,405
2019-05-15T11:24:06.018Z,410
2019-05-15T11:25:19.566Z,415
2019-05-15T11:26:35.712Z,425
2019-05-15T11:27:50.733Z,430
2019-05-15T11:29:03.331Z,430
2019-05-15T11:30:14.932Z,435
2019-05-15T11:31:28.611Z,440
2019-05-15T11:32:41.753Z,445
2019-05-15T11:33:54.120Z,445
2019-05-15T11:35:08.980Z,440
2019-05-15T11:36:20.971Z,440
2019-05-15T11:37:33.157Z,440
2019-05-15T11:38:45.039Z,440
2019-05-15T11:39:58.936Z,450
2019-05-15T11:41:13.542Z,465
2019-05-15T11:42:25.115Z,470
2019-05-15T11:43:38.483Z,480
2019-05-15T11:44:53.286Z,480
2019-05-15T11:46:05.962Z,475
2019-05-15T11:47:15.680Z,470
2019-05-15T11:48:29.780Z,470
2019-05-15T11:49:40.866Z,475
2019-05-15T11:50:50.933Z,475
2019-05-15T11:52:05.219Z,470
2019-05-15T11:53:19.150Z,475
2019-05-15T11:54:30.805Z,480
2019-05-15T11:55:43.109Z,485
2019-05-15T11:56:55.992Z,500
2019-05-15T11:58:09.051Z,490
2019-05-15T11:59:20.898Z,495
2019-05-15T12:00:38.329Z,495
2019-05-15T12:01:48.845Z,505
2019-05-15T12:03:00.918Z,525
2019-05-15T12:04:33.693Z,560
2019-05-15T12:05:45.933Z,590
2019-05-15T12:07:10.926Z,590
2019-05-15T12:08:23.158Z,590
2019-05-15T12:09:35.466Z,610
2019-05-15T12:10:48.365Z,620
2019-05-15T12:11:58.312Z,625
2019-05-15T12:13:09.722Z,600
2019-05-15T12:14:21.987Z,585
2019-05-15T12:15:32.814Z,570
2019-05-15T12:17:11.091Z,540
2019-05-15T12:18:24.713Z,525
2019-05-15T12:19:38.965Z,505
2019-05-15T12:20:51.128Z,490
2019-05-15T12:24:02.048Z,470
2019-05-15T12:25:14.727Z,465
2019-05-15T12:26:24.738Z,460
2019-05-15T12:27:35.642Z,460
2019-05-15T12:30:49.161Z,480
2019-05-15T12:32:23.062Z,505
2019-05-15T12:33:38.362Z,525
2019-05-15T12:34:51.817Z,525
2019-05-15T12:36:01.537Z,530
2019-05-15T12:37:14.681Z,530
2019-05-15T12:38:28.550Z,540
2019-05-15T12:39:43.474Z,575
2019-05-15T12:59:44.409Z,490
2019-05-15T13:00:57.864Z,475
2019-05-15T13:02:10.507Z,455
2019-05-15T13:03:20.707Z,425
2019-05-15T13:04:33.243Z,410
2019-05-15T13:05:48.524Z,415
2019-05-15T13:07:28.406Z,420
2019-05-15T13:08:41.006Z,410
2019-05-15T13:09:51.159Z,405
2019-05-15T13:11:00.864Z,400
2019-05-15T13:12:13.240Z,390
2019-05-15T13:13:23.541Z,380
2019-05-15T13:14:35.333Z,370
2019-05-15T13:15:50.679Z,375
2019-05-15T13:17:01.658Z,390
2019-05-15T13:18:20.361Z,400
2019-05-15T13:19:33.164Z,405
2019-05-15T13:20:45.533Z,415
2019-05-15T13:22:00.404Z,415
2019-05-15T13:23:10.361Z,380
2019-05-15T13:24:21.960Z,345
2019-05-15T13:25:35.196Z,330
2019-05-15T13:26:47.512Z,345
2019-05-15T13:28:00.397Z,350
2019-05-15T13:29:11.452Z,360
2019-05-15T13:30:23.207Z,385
2019-05-15T13:31:35.531Z,400
2019-05-15T13:32:49.561Z,400
2019-05-15T13:34:01.238Z,385
2019-05-15T13:35:14.538Z,375
2019-05-15T13:36:28.721Z,350
2019-05-15T13:37:43.603Z,345
2019-05-15T13:38:57.805Z,335
2019-05-15T13:40:08.069Z,345
2019-05-15T13:41:21.478Z,340
2019-05-15T13:42:32.865Z,345
2019-05-15T13:43:43.377Z,345
2019-05-15T13:44:53.337Z,345
2019-05-15T13:46:05.180Z,340
2019-05-15T13:47:17.736Z,335
2019-05-15T13:48:31.965Z,325
2019-05-15T13:49:43.469Z,315
2019-05-15T13:50:55.471Z,310
2019-05-15T13:52:08.488Z,295
2019-05-15T13:53:20.871Z,285
2019-05-15T13:54:31.146Z,280
2019-05-15T13:55:50.584Z,275
2019-05-15T13:57:02.982Z,270
2019-05-15T13:58:13.571Z,265
2019-05-15T13:59:23.593Z,260
2019-05-15T14:00:38.780Z,255
2019-05-15T14:01:50.889Z,250
2019-05-15T14:03:00.906Z,240
2019-05-15T14:04:13.286Z,230
2019-05-15T14:05:23.269Z,225
2019-05-15T14:06:37.794Z,220
2019-05-15T14:08:03.165Z,220
2019-05-15T14:09:15.975Z,220
2019-05-15T14:10:28.548Z,230
2019-05-15T14:11:43.803Z,225
2019-05-15T14:12:55.052Z,235
2019-05-15T14:14:06.800Z,235
2019-05-15T14:15:18.685Z,240
2019-05-15T14:16:30.774Z,250
2019-05-15T14:17:42.497Z,255
2019-05-15T14:18:52.566Z,260
2019-05-15T14:20:02.829Z,270
2019-05-15T14:21:13.839Z,275
2019-05-15T14:22:23.808Z,290
2019-05-15T14:23:38.336Z,305
2019-05-15T14:24:51.233Z,320
2019-05-15T14:26:22.581Z,335
2019-05-15T14:27:39.348Z,340
2019-05-15T14:28:50.549Z,340
2019-05-15T14:30:02.916Z,340
2019-05-15T14:31:14.651Z,335
2019-05-15T14:32:43.560Z,325
2019-05-15T14:33:57.908Z,315
2019-05-15T14:35:08.994Z,305
2019-05-15T14:36:20.950Z,305
2019-05-15T14:37:33.291Z,300
2019-05-15T14:38:45.124Z,300
2019-05-15T14:40:00.430Z,305
2019-05-15T14:41:11.313Z,315
2019-05-15T14:42:23.835Z,320
2019-05-15T14:43:38.244Z,335
2019-05-15T14:44:50.958Z,335
2019-05-15T14:46:03.446Z,345
2019-05-15T14:47:15.944Z,350
2019-05-15T14:48:28.094Z,370
2019-05-15T14:49:54.309Z,390
2019-05-15T14:51:05.645Z,410
2019-05-15T14:52:20.391Z,420
2019-05-15T14:53:31.982Z,410
2019-05-15T14:54:43.293Z,385
2019-05-15T14:55:59.982Z,365
2019-05-15T14:57:11.137Z,345
2019-05-15T14:58:24.496Z,315
2019-05-15T14:59:34.909Z,310
2019-05-15T15:00:52.572Z,315
2019-05-15T15:02:02.914Z,315
2019-05-15T15:03:14.697Z,320
2019-05-15T15:04:25.716Z,325
2019-05-15T15:05:35.716Z,330
2019-05-15T15:06:45.685Z,330
2019-05-15T15:08:09.608Z,335
2019-05-15T15:09:30.655Z,325
2019-05-15T15:10:43.116Z,320
2019-05-15T15:11:55.257Z,315
2019-05-15T15:13:05.584Z,315
2019-05-15T15:14:20.366Z,320
2019-05-15T15:15:30.937Z,315
2019-05-15T15:16:43.203Z,320
2019-05-15T15:17:58.281Z,320
2019-05-15T15:19:08.899Z,300
2019-05-15T15:20:20.349Z,300
2019-05-15T15:21:34.164Z,285
2019-05-15T15:22:48.462Z,275
2019-05-15T15:24:00.875Z,270
2019-05-15T15:25:12.077Z,260
2019-05-15T15:26:24.001Z,260
2019-05-15T15:27:35.278Z,255
2019-05-15T15:28:48.816Z,255
2019-05-15T15:30:00.461Z,250
2019-05-15T15:31:10.807Z,250
2019-05-15T15:32:20.297Z,240
2019-05-15T15:33:31.378Z,230
2019-05-15T15:34:43.470Z,225
2019-05-15T15:35:57.951Z,220
2019-05-15T15:37:10.658Z,210
2019-05-15T15:38:45.556Z,205
2019-05-15T15:39:58.754Z,200
2019-05-15T15:41:11.022Z,200
2019-05-15T15:42:21.039Z,200
2019-05-15T15:43:33.295Z,200
2019-05-15T15:44:45.251Z,205
2019-05-15T15:45:57.676Z,205
2019-05-15T15:47:11.118Z,210
2019-05-15T15:48:21.817Z,215
2019-05-15T15:49:32.553Z,225
2019-05-15T15:50:43.300Z,220
2019-05-15T15:51:58.017Z,220
2019-05-15T15:53:11.415Z,215
2019-05-15T15:54:23.545Z,215
2019-05-15T15:55:38.503Z,215
2019-05-15T15:56:51.102Z,210
2019-05-15T15:58:01.767Z,200
2019-05-15T15:59:13.606Z,195
2019-05-15T16:00:25.648Z,195
2019-05-15T16:01:43.568Z,190
2019-05-15T16:02:55.618Z,185
2019-05-15T16:04:08.302Z,185
2019-05-15T16:05:20.981Z,190
2019-05-15T16:06:31.854Z,190
2019-05-15T16:07:47.996Z,190
2019-05-15T16:09:08.426Z,190
2019-05-15T16:10:19.074Z,185
2019-05-15T16:11:30.400Z,180
2019-05-15T16:12:41.348Z,180
2019-05-15T16:13:54.581Z,185
2019-05-15T16:15:05.137Z,185
2019-05-15T16:16:17.814Z,180
2019-05-15T16:17:28.569Z,175
2019-05-15T16:18:41.364Z,170
2019-05-15T16:19:53.953Z,170
2019-05-15T16:21:05.191Z,170
2019-05-15T16:22:15.910Z,170
2019-05-15T16:23:30.822Z,170
2019-05-15T16:24:43.598Z,165
2019-05-15T16:25:58.219Z,160
2019-05-15T16:27:12.146Z,160
2019-05-15T16:28:23.374Z,150
2019-05-15T16:29:34.969Z,140
2019-05-15T16:31:01.087Z,130
2019-05-15T16:32:13.438Z,120
2019-05-15T16:33:25.281Z,115
2019-05-15T16:34:39.262Z,115
2019-05-15T16:35:51.294Z,115
2019-05-15T16:37:03.398Z,110
2019-05-15T16:38:16.375Z,110
2019-05-15T16:39:28.697Z,110
2019-05-15T16:40:40.813Z,105
2019-05-15T16:41:51.473Z,100
2019-05-15T16:43:03.029Z,95
2019-05-15T16:44:16.166Z,90
2019-05-15T16:45:28.803Z,80
2019-05-15T16:46:41.606Z,75
2019-05-15T16:47:52.896Z,70
2019-05-15T16:49:05.550Z,70
2019-05-15T16:50:15.081Z,65
2019-05-15T16:51:28.496Z,65
2019-05-15T16:52:43.244Z,60
2019-05-15T16:53:53.773Z,55
2019-05-15T16:55:05.380Z,55
2019-05-15T16:56:15.552Z,55
2019-05-15T16:57:28.438Z,55
2019-05-15T16:58:40.922Z,55
2019-05-15T16:59:52.875Z,55
2019-05-15T17:01:03.470Z,55
2019-05-15T17:02:15.999Z,55
2019-05-15T17:03:28.850Z,55
2019-05-15T17:04:40.716Z,55
2019-05-15T17:05:52.556Z,55
2019-05-15T17:07:03.180Z,55
2019-05-15T17:08:13.998Z,55
2019-05-15T17:09:32.916Z,55
2019-05-15T17:10:43.851Z,55
2019-05-15T17:11:58.161Z,50
2019-05-15T17:13:11.049Z,45
2019-05-15T17:14:24.607Z,40
2019-05-15T17:15:34.975Z,40
2019-05-15T17:16:48.056Z,35
2019-05-15T17:18:00.617Z,35
2019-05-15T17:19:11.171Z,35
2019-05-15T17:20:22.908Z,30
2019-05-15T17:21:35.652Z,30
2019-05-15T17:22:48.351Z,30
2019-05-15T17:24:00.691Z,30
2019-05-15T17:25:11.851Z,30
2019-05-15T17:26:23.449Z,30
2019-05-15T17:27:33.752Z,30
2019-05-15T17:28:45.255Z,35
2019-05-15T17:29:58.399Z,35
2019-05-15T17:31:09.145Z,35
2019-05-15T17:32:20.929Z,35